createdAt,value
2022-12-26T00:01:25.746Z,66.09
2022-12-26T00:03:54.477Z,66.18
2022-12-26T00:06:26.966Z,66.37
2022-12-26T00:08:56.047Z,66.53
2022-12-26T00:11:25.087Z,66.24
2022-12-26T00:13:55.517Z,65.91
2022-12-26T00:16:24.409Z,66.12
2022-12-26T00:18:52.917Z,66.35
2022-12-26T00:21:21.807Z,66.44
2022-12-26T00:23:51.883Z,66.27
2022-12-26T00:26:21.565Z,66.27
2022-12-26T00:28:49.938Z,66.29
2022-12-26T00:31:20.939Z,66.14
2022-12-26T00:33:49.785Z,66.11
2022-12-26T00:36:19.847Z,66.06
2022-12-26T00:38:48.571Z,66.23
2022-12-26T00:41:19.281Z,66.14
2022-12-26T00:43:47.567Z,66.06
2022-12-26T00:46:15.783Z,66.17
2022-12-26T00:48:44.053Z,66.26
2022-12-26T00:51:12.323Z,65.98
2022-12-26T00:53:40.992Z,65.99
2022-12-26T00:56:09.291Z,66.10
2022-12-26T00:58:38.960Z,65.95
2022-12-26T01:01:08.912Z,66.06
2022-12-26T01:03:37.117Z,66.06
2022-12-26T01:06:06.051Z,66.10
2022-12-26T01:08:34.236Z,66.11
2022-12-26T01:11:05.595Z,66.05
2022-12-26T01:13:33.869Z,66.11
2022-12-26T01:16:03.816Z,65.89
2022-12-26T01:18:31.964Z,65.95
2022-12-26T01:21:01.146Z,66.02
2022-12-26T01:23:29.709Z,66.27
2022-12-26T01:26:17.793Z,66.30
2022-12-26T01:28:45.924Z,66.28
2022-12-26T01:31:15.473Z,65.78
2022-12-26T01:33:43.559Z,65.76
2022-12-26T01:36:12.411Z,65.67
2022-12-26T01:38:40.534Z,65.67
2022-12-26T01:41:19.631Z,65.67
2022-12-26T01:43:57.641Z,65.57
2022-12-26T01:46:32.201Z,65.77
2022-12-26T01:49:03.119Z,66.16
2022-12-26T01:51:35.147Z,66.27
2022-12-26T01:54:39.735Z,66.14
2022-12-26T01:56:54.551Z,66.17
2022-12-26T01:59:26.223Z,66.23
2022-12-26T02:01:56.684Z,66.40
2022-12-26T02:04:47.885Z,66.27
2022-12-26T02:07:15.945Z,66.12
2022-12-26T02:09:45.575Z,66.07
2022-12-26T02:12:35.769Z,66.17
2022-12-26T02:15:09.778Z,66.53
2022-12-26T02:17:40.576Z,66.46
2022-12-26T02:20:18.285Z,66.72
2022-12-26T02:23:19.222Z,66.33
2022-12-26T02:26:29.166Z,66.54
2022-12-26T02:29:25.855Z,65.92
2022-12-26T02:32:04.839Z,65.72
2022-12-26T02:34:46.043Z,66.11
2022-12-26T02:37:25.636Z,66.30
2022-12-26T02:40:13.257Z,66.25
2022-12-26T02:42:55.178Z,66.24
2022-12-26T02:45:48.051Z,66.31
2022-12-26T02:48:25.153Z,66.19
2022-12-26T02:51:23.117Z,66.23
2022-12-26T02:54:18.914Z,66.49
2022-12-26T02:57:10.114Z,66.22
2022-12-26T03:00:04.955Z,66.18
2022-12-26T03:02:56.230Z,66.27
2022-12-26T03:05:48.621Z,66.04
2022-12-26T03:08:41.383Z,66.00
2022-12-26T03:11:27.201Z,66.13
2022-12-26T03:14:00.839Z,66.21
2022-12-26T03:16:48.218Z,66.23
2022-12-26T03:19:16.783Z,66.46
2022-12-26T03:21:48.448Z,66.33
2022-12-26T03:24:18.227Z,66.63
2022-12-26T03:26:51.954Z,66.19
2022-12-26T03:29:39.616Z,66.22
2022-12-26T03:32:12.031Z,66.38
2022-12-26T03:34:43.197Z,66.14
2022-12-26T03:37:47.445Z,65.88
2022-12-26T03:40:43.249Z,66.41
2022-12-26T03:43:39.531Z,66.54
2022-12-26T03:46:36.073Z,66.23
2022-12-26T03:49:27.995Z,66.13
2022-12-26T03:52:19.061Z,66.34
2022-12-26T03:55:16.154Z,67.00
2022-12-26T03:58:07.020Z,66.94
2022-12-26T04:00:54.501Z,66.73
2022-12-26T04:03:42.200Z,66.63
2022-12-26T04:06:36.302Z,66.11
2022-12-26T04:09:28.759Z,66.24
2022-12-26T04:12:19.933Z,66.70
2022-12-26T04:15:10.155Z,66.61
2022-12-26T04:17:59.916Z,66.27
2022-12-26T04:20:34.091Z,66.36
2022-12-26T04:23:24.700Z,67.01
2022-12-26T04:26:17.965Z,66.77
2022-12-26T04:29:05.064Z,66.51
2022-12-26T04:31:53.467Z,66.51
2022-12-26T04:34:44.512Z,66.53
2022-12-26T04:37:36.352Z,66.31
2022-12-26T04:40:23.099Z,66.44
2022-12-26T04:43:47.588Z,66.26
2022-12-26T04:45:58.409Z,66.35
2022-12-26T04:48:44.347Z,66.45
2022-12-26T04:51:12.421Z,66.30
2022-12-26T04:53:40.463Z,66.75
2022-12-26T04:56:09.766Z,66.44
2022-12-26T04:58:37.865Z,66.46
2022-12-26T05:01:21.219Z,66.90
2022-12-26T05:04:06.573Z,66.49
2022-12-26T05:06:51.836Z,66.89
2022-12-26T05:09:36.211Z,66.84
2022-12-26T05:12:05.140Z,66.72
2022-12-26T05:14:35.876Z,66.35
2022-12-26T05:17:23.615Z,66.24
2022-12-26T05:20:08.959Z,66.59
2022-12-26T05:22:58.544Z,66.39
2022-12-26T05:25:47.520Z,66.61
2022-12-26T05:28:34.201Z,66.63
2022-12-26T05:31:03.345Z,66.59
2022-12-26T05:33:50.768Z,66.27
2022-12-26T05:36:21.574Z,66.53
2022-12-26T05:38:50.198Z,66.66
2022-12-26T05:41:19.713Z,66.94
2022-12-26T05:43:47.997Z,66.67
2022-12-26T05:46:16.471Z,66.64
2022-12-26T05:48:46.186Z,66.44
2022-12-26T05:51:14.726Z,66.88
2022-12-26T05:53:43.015Z,66.56
2022-12-26T05:56:13.425Z,66.69
2022-12-26T05:58:42.146Z,67.04
2022-12-26T06:01:12.348Z,66.94
2022-12-26T06:03:41.747Z,67.27
2022-12-26T06:06:12.039Z,67.19
2022-12-26T06:08:40.854Z,66.88
2022-12-26T06:11:10.829Z,67.10
2022-12-26T06:13:39.756Z,67.11
2022-12-26T06:16:09.419Z,67.18
2022-12-26T06:18:38.132Z,66.85
2022-12-26T06:21:07.427Z,66.67
2022-12-26T06:23:37.794Z,66.42
2022-12-26T06:26:07.305Z,66.55
2022-12-26T06:28:35.920Z,66.59
2022-12-26T06:31:05.106Z,66.42
2022-12-26T06:33:33.445Z,66.65
2022-12-26T06:36:07.358Z,66.43
2022-12-26T06:38:37.831Z,66.85
2022-12-26T06:41:06.942Z,66.88
2022-12-26T06:43:35.301Z,66.62
2022-12-26T06:46:04.890Z,66.28
2022-12-26T06:48:33.982Z,66.15
2022-12-26T06:51:05.014Z,66.31
2022-12-26T06:53:36.459Z,65.98
2022-12-26T06:56:09.023Z,65.84
2022-12-26T06:58:37.554Z,66.12
2022-12-26T07:01:07.415Z,66.61
2022-12-26T07:03:37.208Z,66.70
2022-12-26T07:06:06.959Z,66.74
2022-12-26T07:08:36.717Z,66.70
2022-12-26T07:11:05.604Z,66.80
2022-12-26T07:13:33.972Z,66.63
2022-12-26T07:16:02.338Z,66.65
2022-12-26T07:18:30.639Z,66.71
2022-12-26T07:20:58.963Z,67.11
2022-12-26T07:23:27.267Z,66.71
2022-12-26T07:25:56.996Z,66.80
2022-12-26T07:28:25.293Z,66.63
2022-12-26T07:30:53.915Z,66.54
2022-12-26T07:33:22.584Z,66.17
2022-12-26T07:35:51.047Z,66.11
2022-12-26T07:38:19.316Z,66.31
2022-12-26T07:40:48.039Z,66.28
2022-12-26T07:43:17.649Z,66.19
2022-12-26T07:45:46.162Z,66.07
2022-12-26T07:48:14.536Z,65.82
2022-12-26T07:50:45.608Z,65.97
2022-12-26T07:53:14.146Z,65.91
2022-12-26T07:55:42.441Z,65.96
2022-12-26T07:58:10.821Z,66.01
2022-12-26T08:00:40.476Z,66.07
2022-12-26T08:03:10.939Z,65.74
2022-12-26T08:05:39.895Z,65.93
2022-12-26T08:08:08.255Z,65.78
2022-12-26T08:10:36.511Z,65.74
2022-12-26T08:13:04.902Z,65.66
2022-12-26T08:15:33.983Z,65.57
2022-12-26T08:18:03.703Z,65.58
2022-12-26T08:20:32.076Z,65.57
2022-12-26T08:23:00.659Z,65.71
2022-12-26T08:25:29.230Z,65.41
2022-12-26T08:27:57.569Z,65.26
2022-12-26T08:30:25.984Z,65.44
2022-12-26T08:32:54.380Z,65.22
2022-12-26T08:35:24.154Z,65.19
2022-12-26T08:37:52.430Z,65.01
2022-12-26T08:40:40.054Z,64.88
2022-12-26T08:46:04.706Z,64.64
2022-12-26T08:48:33.728Z,64.81
2022-12-26T08:51:06.223Z,64.97
2022-12-26T08:53:36.125Z,64.95
2022-12-26T08:56:05.901Z,64.69
2022-12-26T08:58:35.421Z,64.53
2022-12-26T09:01:08.651Z,64.23
2022-12-26T09:03:37.162Z,64.40
2022-12-26T09:06:07.496Z,65.03
2022-12-26T09:08:37.289Z,65.05
2022-12-26T09:11:06.817Z,64.69
2022-12-26T09:13:35.842Z,64.99
2022-12-26T09:16:08.927Z,64.78
2022-12-26T09:18:37.711Z,64.71
2022-12-26T09:21:09.719Z,64.67
2022-12-26T09:23:39.386Z,64.79
2022-12-26T09:26:09.846Z,65.04
2022-12-26T09:28:38.473Z,65.09
2022-12-26T09:31:08.570Z,65.30
2022-12-26T09:33:37.787Z,64.70
2022-12-26T09:36:14.297Z,64.52
2022-12-26T09:38:44.065Z,64.50
2022-12-26T09:41:30.441Z,64.97
2022-12-26T09:44:07.056Z,64.55
2022-12-26T09:46:40.054Z,64.20
2022-12-26T09:49:13.657Z,63.82
2022-12-26T09:51:47.350Z,64.41
2022-12-26T09:54:23.241Z,64.32
2022-12-26T09:57:02.416Z,64.66
2022-12-26T09:59:35.667Z,64.48
2022-12-26T10:02:04.188Z,64.98
2022-12-26T10:04:32.547Z,65.44
2022-12-26T10:07:13.708Z,65.88
2022-12-26T10:09:54.198Z,65.87
2022-12-26T10:12:37.167Z,65.67
2022-12-26T10:15:20.088Z,66.04
2022-12-26T10:17:57.333Z,66.24
2022-12-26T10:20:32.737Z,65.75
2022-12-26T10:23:18.832Z,66.22
2022-12-26T10:25:49.620Z,65.82
2022-12-26T10:28:26.837Z,65.75
2022-12-26T10:30:57.472Z,65.62
2022-12-26T10:33:34.666Z,65.32
2022-12-26T10:36:03.786Z,65.18
2022-12-26T10:38:37.379Z,65.08
2022-12-26T10:41:14.178Z,64.79
2022-12-26T10:43:45.095Z,64.82
2022-12-26T10:46:46.084Z,64.43
2022-12-26T10:49:17.225Z,64.53
2022-12-26T10:51:45.819Z,64.54
2022-12-26T10:54:18.521Z,65.02
2022-12-26T10:57:11.996Z,60.87
2022-12-26T10:59:46.181Z,58.68
2022-12-26T11:02:26.738Z,57.61
2022-12-26T11:05:33.469Z,57.06
2022-12-26T11:07:54.994Z,57.73
2022-12-26T11:10:29.280Z,58.20
2022-12-26T11:13:01.250Z,58.54
2022-12-26T11:15:33.646Z,58.00
2022-12-26T11:18:20.819Z,58.06
2022-12-26T11:20:50.035Z,58.76
2022-12-26T11:23:27.794Z,58.97
2022-12-26T11:25:59.227Z,59.70
2022-12-26T11:28:32.339Z,60.36
2022-12-26T11:31:02.527Z,60.43
2022-12-26T11:33:33.981Z,60.86
2022-12-26T11:36:12.965Z,61.43
2022-12-26T11:38:50.518Z,62.28
2022-12-26T11:41:36.661Z,63.91
2022-12-26T11:44:19.322Z,64.47
2022-12-26T11:46:51.136Z,65.33
2022-12-26T11:49:23.979Z,65.50
2022-12-26T11:51:58.699Z,65.21
2022-12-26T11:54:35.184Z,64.77
2022-12-26T11:57:22.229Z,64.13
2022-12-26T11:59:52.882Z,63.32
2022-12-26T12:02:31.360Z,62.75
2022-12-26T12:05:03.833Z,62.38
2022-12-26T12:07:51.325Z,61.74
2022-12-26T12:10:50.735Z,60.73
2022-12-26T12:13:32.688Z,60.73
2022-12-26T12:16:10.190Z,60.36
2022-12-26T12:18:51.415Z,60.16
2022-12-26T12:21:31.990Z,59.58
2022-12-26T12:24:22.703Z,59.38
2022-12-26T12:27:04.981Z,58.26
2022-12-26T12:30:04.011Z,58.40
2022-12-26T12:32:39.051Z,58.54
2022-12-26T12:35:33.317Z,58.09
2022-12-26T12:38:15.662Z,56.81
2022-12-26T12:40:52.925Z,56.88
2022-12-26T12:43:30.752Z,56.71
2022-12-26T12:46:09.734Z,57.42
2022-12-26T12:49:03.550Z,57.88
2022-12-26T12:51:42.262Z,55.83
2022-12-26T12:54:40.049Z,55.90
2022-12-26T12:57:16.908Z,56.19
2022-12-26T12:59:55.729Z,56.42
2022-12-26T13:02:31.789Z,57.05
2022-12-26T13:05:09.529Z,57.11
2022-12-26T13:07:46.889Z,57.26
2022-12-26T13:10:20.656Z,58.15
2022-12-26T13:12:50.325Z,58.57
2022-12-26T13:15:27.500Z,58.32
2022-12-26T13:18:01.788Z,57.94
2022-12-26T13:20:38.058Z,57.56
2022-12-26T13:23:29.928Z,57.42
2022-12-26T13:26:07.332Z,56.34
2022-12-26T13:28:40.941Z,55.87
2022-12-26T13:31:09.082Z,54.97
2022-12-26T13:33:38.612Z,55.31
2022-12-26T13:36:07.965Z,54.37
2022-12-26T13:39:13.275Z,52.14
2022-12-26T13:42:05.572Z,52.44
2022-12-26T13:44:33.961Z,52.11
2022-12-26T13:47:02.109Z,52.04
2022-12-26T13:49:37.133Z,51.43
2022-12-26T13:52:33.770Z,51.66
2022-12-26T13:55:43.963Z,51.74
2022-12-26T13:58:38.480Z,52.29
2022-12-26T14:01:18.670Z,51.48
2022-12-26T14:04:02.848Z,50.65
2022-12-26T14:07:05.039Z,50.43
2022-12-26T14:09:59.543Z,49.93
2022-12-26T14:12:44.507Z,50.21
2022-12-26T14:15:27.027Z,50.85
2022-12-26T14:18:05.182Z,51.38
2022-12-26T14:20:42.550Z,51.34
2022-12-26T14:23:39.573Z,51.83
2022-12-26T14:26:19.191Z,52.27
2022-12-26T14:28:55.678Z,52.58
2022-12-26T14:31:42.067Z,52.57
2022-12-26T14:34:22.442Z,52.62
2022-12-26T14:36:57.772Z,53.01
2022-12-26T14:39:37.055Z,53.04
2022-12-26T14:42:39.531Z,53.20
2022-12-26T14:45:36.659Z,53.55
2022-12-26T14:48:25.184Z,53.65
2022-12-26T14:50:55.402Z,53.36
2022-12-26T14:53:34.880Z,53.24
2022-12-26T14:56:26.711Z,53.33
2022-12-26T14:59:27.787Z,53.40
2022-12-26T15:02:12.031Z,53.53
2022-12-26T15:04:53.924Z,54.09
2022-12-26T15:07:51.978Z,54.30
2022-12-26T15:10:54.030Z,54.64
2022-12-26T15:13:57.570Z,54.91
2022-12-26T15:16:44.081Z,55.15
2022-12-26T15:19:56.368Z,55.50
2022-12-26T15:22:59.523Z,55.65
2022-12-26T15:26:10.711Z,55.75
2022-12-26T15:29:04.936Z,56.02
2022-12-26T15:31:49.249Z,56.24
2022-12-26T15:34:45.847Z,56.03
2022-12-26T15:37:25.673Z,56.30
2022-12-26T15:39:58.664Z,56.60
2022-12-26T15:42:39.775Z,56.36
2022-12-26T15:45:27.986Z,56.74
2022-12-26T15:48:05.675Z,56.69
2022-12-26T15:50:42.553Z,56.93
2022-12-26T15:53:20.489Z,56.62
2022-12-26T15:56:12.012Z,56.52
2022-12-26T15:59:08.971Z,56.32
2022-12-26T16:01:40.827Z,56.58
2022-12-26T16:04:18.569Z,56.56
2022-12-26T16:07:08.224Z,56.29
2022-12-26T16:09:43.605Z,56.51
2022-12-26T16:12:27.529Z,56.22
2022-12-26T16:15:14.631Z,56.39
2022-12-26T16:17:44.011Z,56.67
2022-12-26T16:20:41.902Z,56.60
2022-12-26T16:23:15.639Z,56.62
2022-12-26T16:25:48.310Z,56.55
2022-12-26T16:28:17.841Z,57.01
2022-12-26T16:30:46.063Z,56.99
2022-12-26T16:33:15.632Z,57.00
2022-12-26T16:35:45.431Z,57.13
2022-12-26T16:38:16.390Z,57.16
2022-12-26T16:40:46.126Z,57.12
2022-12-26T16:43:34.580Z,57.13
2022-12-26T16:46:05.886Z,57.27
2022-12-26T16:48:37.162Z,57.46
2022-12-26T16:51:09.304Z,57.35
2022-12-26T16:53:45.374Z,57.17
2022-12-26T16:56:27.677Z,57.17
2022-12-26T16:59:04.577Z,57.47
2022-12-26T17:01:34.708Z,57.42
2022-12-26T17:04:05.549Z,57.26
2022-12-26T17:06:38.116Z,57.24
2022-12-26T17:09:09.748Z,57.29
2022-12-26T17:11:40.476Z,57.56
2022-12-26T17:14:18.739Z,57.43
2022-12-26T17:16:46.846Z,57.47
2022-12-26T17:19:20.135Z,57.45
2022-12-26T17:22:23.859Z,57.49
2022-12-26T17:24:57.719Z,57.65
2022-12-26T17:27:27.649Z,57.84
2022-12-26T17:30:01.050Z,57.58
2022-12-26T17:32:36.450Z,57.75
2022-12-26T17:35:07.692Z,58.25
2022-12-26T17:37:36.352Z,57.90
2022-12-26T17:40:19.669Z,57.29
2022-12-26T17:42:50.272Z,57.45
2022-12-26T17:45:20.130Z,57.61
2022-12-26T17:47:48.717Z,57.88
2022-12-26T17:50:16.812Z,57.69
2022-12-26T17:52:44.946Z,57.64
2022-12-26T17:55:19.848Z,57.32
2022-12-26T17:57:48.657Z,57.47
2022-12-26T18:00:19.275Z,57.99
2022-12-26T18:02:47.551Z,57.59
2022-12-26T18:05:15.849Z,57.67
2022-12-26T18:07:44.970Z,57.75
2022-12-26T18:10:20.563Z,57.84
2022-12-26T18:12:49.248Z,58.08
2022-12-26T18:15:17.783Z,58.00
2022-12-26T18:17:46.963Z,57.82
2022-12-26T18:20:18.194Z,57.96
2022-12-26T18:22:47.668Z,57.96
2022-12-26T18:25:19.086Z,57.61
2022-12-26T18:27:47.725Z,57.58
2022-12-26T18:30:18.189Z,58.01
2022-12-26T18:32:47.494Z,57.79
2022-12-26T18:35:15.890Z,58.14
2022-12-26T18:37:47.919Z,58.15
2022-12-26T18:40:28.791Z,58.65
2022-12-26T18:42:57.166Z,59.10
2022-12-26T18:45:25.925Z,58.79
2022-12-26T18:47:54.106Z,58.69
2022-12-26T18:50:22.257Z,58.54
2022-12-26T18:52:53.729Z,59.16
2022-12-26T18:55:25.368Z,58.87
2022-12-26T18:57:54.212Z,59.20
2022-12-26T19:00:23.129Z,59.11
2022-12-26T19:02:52.169Z,59.03
2022-12-26T19:05:22.095Z,59.11
2022-12-26T19:07:50.697Z,59.64
2022-12-26T19:10:20.731Z,59.32
2022-12-26T19:12:50.633Z,59.32
2022-12-26T19:15:18.845Z,59.71
2022-12-26T19:17:47.286Z,59.70
2022-12-26T19:20:20.739Z,59.36
2022-12-26T19:22:50.093Z,60.02
2022-12-26T19:25:19.696Z,59.77
2022-12-26T19:27:50.265Z,60.33
2022-12-26T19:30:19.638Z,60.43
2022-12-26T19:32:48.447Z,60.22
2022-12-26T19:35:17.542Z,61.28
2022-12-26T19:37:45.941Z,60.89
2022-12-26T19:40:21.228Z,60.89
2022-12-26T19:42:54.692Z,60.18
2022-12-26T19:45:23.197Z,60.68
2022-12-26T19:47:51.457Z,60.47
2022-12-26T19:50:19.823Z,60.76
2022-12-26T19:52:48.075Z,60.70
2022-12-26T19:55:16.362Z,60.29
2022-12-26T19:57:44.793Z,60.39
2022-12-26T20:00:15.167Z,59.82
2022-12-26T20:02:43.698Z,59.88
2022-12-26T20:05:12.124Z,59.47
2022-12-26T20:07:40.593Z,59.36
2022-12-26T20:10:09.246Z,60.05
2022-12-26T20:12:37.490Z,59.90
2022-12-26T20:15:06.636Z,59.72
2022-12-26T20:17:36.382Z,60.25
2022-12-26T20:20:05.139Z,60.30
2022-12-26T20:22:33.552Z,60.04
2022-12-26T20:25:01.881Z,59.98
2022-12-26T20:27:30.228Z,60.05
2022-12-26T20:29:58.458Z,59.86
2022-12-26T20:32:26.842Z,60.10
2022-12-26T20:34:56.446Z,60.08
2022-12-26T20:37:24.693Z,59.86
2022-12-26T20:39:53.086Z,60.12
2022-12-26T20:42:21.381Z,60.08
2022-12-26T20:44:49.650Z,60.14
2022-12-26T20:47:18.091Z,59.88
2022-12-26T20:49:46.408Z,59.80
2022-12-26T20:52:16.616Z,59.88
2022-12-26T20:54:46.951Z,60.12
2022-12-26T20:57:15.387Z,60.20
2022-12-26T20:59:43.841Z,60.48
2022-12-26T21:02:13.899Z,59.87
2022-12-26T21:04:42.425Z,60.23
2022-12-26T21:07:10.680Z,60.01
2022-12-26T21:09:45.989Z,59.75
2022-12-26T21:12:15.051Z,59.60
2022-12-26T21:14:43.553Z,59.64
2022-12-26T21:17:11.961Z,59.62
2022-12-26T21:19:40.325Z,59.70
2022-12-26T21:22:08.601Z,59.50
2022-12-26T21:24:37.082Z,59.54
2022-12-26T21:27:06.878Z,59.68
2022-12-26T21:29:36.361Z,59.35
2022-12-26T21:32:06.047Z,59.42
2022-12-26T21:34:35.023Z,59.35
2022-12-26T21:37:20.935Z,59.22
2022-12-26T21:39:50.720Z,59.34
2022-12-26T21:42:20.818Z,59.51
2022-12-26T21:44:49.177Z,59.42
2022-12-26T21:47:17.481Z,59.54
2022-12-26T21:49:45.780Z,59.44
2022-12-26T21:52:14.076Z,59.43
2022-12-26T21:55:00.254Z,59.80
2022-12-26T21:57:30.722Z,60.03
2022-12-26T21:59:59.613Z,59.98
2022-12-26T22:02:47.423Z,59.90
2022-12-26T22:05:16.678Z,59.58
2022-12-26T22:07:45.342Z,59.76
2022-12-26T22:10:34.784Z,59.42
2022-12-26T22:13:05.562Z,59.58
2022-12-26T22:15:51.841Z,59.67
2022-12-26T22:18:20.592Z,59.61
2022-12-26T22:20:49.081Z,59.44
2022-12-26T22:23:17.413Z,59.70
2022-12-26T22:25:45.673Z,59.79
2022-12-26T22:28:20.184Z,59.64
2022-12-26T22:30:51.956Z,59.38
2022-12-26T22:33:21.219Z,59.38
2022-12-26T22:35:49.781Z,59.06
2022-12-26T22:38:18.456Z,58.96
2022-12-26T22:40:55.144Z,58.55
2022-12-26T22:43:26.076Z,58.60
2022-12-26T22:45:55.081Z,58.93
2022-12-26T22:48:24.309Z,59.19
2022-12-26T22:50:55.143Z,58.87
2022-12-26T22:53:27.487Z,58.73
2022-12-26T22:55:59.611Z,58.79
2022-12-26T22:58:30.656Z,59.20
2022-12-26T23:00:59.921Z,59.12
2022-12-26T23:03:28.938Z,58.93
2022-12-26T23:05:58.021Z,59.06
2022-12-26T23:08:29.293Z,59.07
2022-12-26T23:10:59.481Z,58.93
2022-12-26T23:13:30.047Z,58.97
2022-12-26T23:16:03.525Z,59.02
2022-12-26T23:18:54.146Z,58.74
2022-12-26T23:21:42.319Z,58.61
2022-12-26T23:24:14.020Z,58.92
2022-12-26T23:26:44.298Z,59.12
2022-12-26T23:29:32.475Z,59.41
2022-12-26T23:32:01.150Z,59.70
2022-12-26T23:34:29.776Z,59.94
2022-12-26T23:36:58.152Z,60.10
2022-12-26T23:39:26.623Z,59.64
2022-12-26T23:41:54.945Z,59.96
2022-12-26T23:44:24.652Z,59.97
2022-12-26T23:46:53.012Z,59.82
2022-12-26T23:49:21.257Z,59.57
2022-12-26T23:51:49.558Z,59.28
2022-12-26T23:54:17.845Z,59.54
2022-12-26T23:56:46.297Z,60.00
2022-12-26T23:59:14.567Z,60.02
